XAHOF / XA-HOF 7700 Squawk Report (21st of April, 2019)

Time Lat Lon Altitude Heading Speed Vertical Rate
2019-04-21 15:30:42 GMT 32.123257 -110.939423 0 213 0 0
2019-04-21 15:30:37 GMT 32.123257 -110.939423 0 213 0 0
2019-04-21 15:30:02 GMT 32.123428 -110.939423 0 129 3 0
2019-04-21 15:29:47 GMT 32.123577 -110.939682 0 101 6 0
2019-04-21 15:29:42 GMT 32.123600 -110.939819 0 87 6 0
2019-04-21 15:29:32 GMT 32.123520 -110.940147 0 67 7 0
2019-04-21 15:29:22 GMT 32.123348 -110.940491 0 47 8 0
2019-04-21 15:29:05 GMT 32.122952 -110.941017 0 47 8 0
2019-04-21 15:28:57 GMT 32.122765 -110.941277 0 47 8 0
2019-04-21 15:28:49 GMT 32.122581 -110.941521 0 47 8 0
2019-04-21 15:28:21 GMT 32.121964 -110.942276 0 73 5 0
2019-04-21 15:28:15 GMT 32.121941 -110.942375 0 112 5 0
2019-04-21 15:28:05 GMT 32.122059 -110.942558 0 132 5 0
2019-04-21 15:27:55 GMT 32.122238 -110.942795 0 123 4 0
2019-04-21 15:27:44 GMT 32.122326 -110.942970 0 106 4 0
2019-04-21 15:27:33 GMT 32.122360 -110.943237 0 73 6 0
2019-04-21 15:27:21 GMT 32.122169 -110.943565 0 39 8 0
2019-04-21 15:27:08 GMT 32.121822 -110.943657 0 315 7 0
2019-04-21 15:27:01 GMT 32.121586 -110.943359 0 315 12 0
2019-04-21 15:26:49 GMT 32.121140 -110.942841 0 315 14 0
2019-04-21 15:26:38 GMT 32.120613 -110.942223 0 315 16 0
2019-04-21 15:26:28 GMT 32.120075 -110.941605 0 315 17 0
2019-04-21 15:26:15 GMT 32.119381 -110.940781 0 315 16 0
2019-04-21 15:26:04 GMT 32.118916 -110.940224 0 315 14 0
2019-04-21 15:25:55 GMT 32.118496 -110.939728 0 315 15 0
2019-04-21 15:25:43 GMT 32.117798 -110.938911 0 315 16 0
2019-04-21 15:25:26 GMT 32.116974 -110.937950 0 315 17 0
2019-04-21 15:25:22 GMT 32.116714 -110.937660 0 315 18 0
2019-04-21 15:25:12 GMT 32.116161 -110.937004 0 312 14 0
2019-04-21 15:25:02 GMT 32.115486 -110.936218 0 315 8 0
2019-04-21 15:24:51 GMT 32.115486 -110.936218 0 320 8 0
2019-04-21 15:24:42 GMT 32.115284 -110.936089 0 2 6 0
2019-04-21 15:24:37 GMT 32.115166 -110.936111 0 25 5 0
2019-04-21 15:24:27 GMT 32.115051 -110.936203 0 45 3 0
2019-04-21 15:24:19 GMT 32.114960 -110.936317 0 45 5 0
2019-04-21 15:24:16 GMT 32.114933 -110.936340 0 45 5 0
2019-04-21 15:24:08 GMT 32.114796 -110.936523 0 42 7 0
2019-04-21 15:24:03 GMT 32.114677 -110.936630 0 42 8 0
2019-04-21 15:23:57 GMT 32.114506 -110.936859 0 47 8 0
2019-04-21 15:23:53 GMT 32.114410 -110.936974 0 64 8 0
2019-04-21 15:23:44 GMT 32.114388 -110.937263 0 109 7 0
2019-04-21 15:23:35 GMT 32.114559 -110.937569 0 132 8 0
2019-04-21 15:23:23 GMT 32.114910 -110.937981 0 135 11 0
2019-04-21 15:23:13 GMT 32.115284 -110.938416 0 135 21 0
2019-04-21 15:23:01 GMT 32.117004 -110.940460 2,525 135 76 0
2019-04-21 15:22:52 GMT 32.119881 -110.943810 2,525 135 113 64
2019-04-21 15:22:40 GMT 32.124580 -110.949303 2,625 135 125 -576
2019-04-21 15:22:28 GMT 32.129105 -110.954605 2,750 135 121 -576
2019-04-21 15:22:18 GMT 32.133316 -110.959442 2,825 135 115 -832
2019-04-21 15:22:07 GMT 32.137344 -110.964111 2,900 135 114 -448
2019-04-21 15:21:57 GMT 32.141525 -110.968979 3,025 136 117 -448
2019-04-21 15:21:46 GMT 32.145767 -110.973778 3,150 135 118 -1024
2019-04-21 15:21:34 GMT 32.149979 -110.978775 3,250 134 117 -576
2019-04-21 15:21:24 GMT 32.153915 -110.983559 3,325 133 116 -512
2019-04-21 15:21:14 GMT 32.158081 -110.988609 3,400 135 118 -64
2019-04-21 15:21:02 GMT 32.162197 -110.993530 3,475 133 123 -640
2019-04-21 15:20:55 GMT 32.165642 -110.998238 3,625 127 126 -1088
2019-04-21 15:20:52 GMT 32.166340 -110.999298 3,675 123 126 -1216
2019-04-21 15:20:42 GMT 32.168839 -111.005859 3,825 101 126 -640
2019-04-21 15:20:31 GMT 32.169552 -111.013145 3,925 93 132 -576
2019-04-21 15:20:20 GMT 32.169022 -111.021133 4,100 71 138 -1216
2019-04-21 15:20:10 GMT 32.165779 -111.027946 4,300 51 140 -1024
2019-04-21 15:19:59 GMT 32.160336 -111.034225 4,425 40 149 -832
2019-04-21 15:19:48 GMT 32.154556 -111.039864 4,600 39 151 -1024
2019-04-21 15:19:37 GMT 32.148651 -111.045769 4,800 41 152 -1280
2019-04-21 15:19:26 GMT 32.142830 -111.052101 5,050 44 166 -1216
2019-04-21 15:19:15 GMT 32.136406 -111.059502 5,250 44 183 -1472
2019-04-21 15:19:08 GMT 32.131897 -111.064636 5,425 43 190 -1408
2019-04-21 15:19:04 GMT 32.129608 -111.067215 5,500 43 191 -1472
2019-04-21 15:18:52 GMT 32.122536 -111.075081 5,775 42 201 -1536
2019-04-21 15:18:42 GMT 32.114548 -111.082932 6,025 31 213 -1408
2019-04-21 15:18:32 GMT 32.104797 -111.087357 6,275 6 217 -1600
2019-04-21 15:18:21 GMT 32.093857 -111.085846 6,550 337 211 -1472
2019-04-21 15:18:14 GMT 32.088459 -111.082542 6,675 329 213 -1088
2019-04-21 15:18:10 GMT 32.084084 -111.079231 6,775 327 218 -1408
2019-04-21 15:18:04 GMT 32.079437 -111.075569 6,875 327 221 -1408
2019-04-21 15:17:59 GMT 32.075191 -111.072227 7,000 327 225 -1344
2019-04-21 15:17:49 GMT 32.066208 -111.065109 7,225 326 234 -1600
2019-04-21 15:17:38 GMT 32.056149 -111.056923 7,550 325 246 -2048
2019-04-21 15:17:35 GMT 32.054764 -111.055740 7,600 325 246 -2112
2019-04-21 15:17:32 GMT 32.051743 -111.053268 7,725 325 249 -2240
2019-04-21 15:17:27 GMT 32.045471 -111.047989 7,950 324 255 -2176
2019-04-21 15:17:22 GMT 32.041855 -111.044807 8,075 323 258 -2112
2019-04-21 15:17:16 GMT 32.035526 -111.038986 8,325 322 259 -2176
2019-04-21 15:17:05 GMT 32.025703 -111.029907 8,675 322 259 -2176
2019-04-21 15:16:58 GMT 32.019234 -111.023911 8,900 322 261 -2176
2019-04-21 15:16:54 GMT 32.015045 -111.020042 9,050 322 261 -2368
2019-04-21 15:16:49 GMT 32.009857 -111.015144 9,275 322 261 -2368
2019-04-21 15:16:43 GMT 32.004684 -111.010361 9,475 322 262 -2368
2019-04-21 15:16:38 GMT 31.999264 -111.005241 9,675 322 263 -2240
2019-04-21 15:16:33 GMT 31.994701 -111.000931 9,850 321 264 -2176
2019-04-21 15:16:28 GMT 31.989393 -110.995827 10,025 321 266 -2112
2019-04-21 15:16:22 GMT 31.984497 -110.991081 10,200 321 267 -2048
2019-04-21 15:16:17 GMT 31.980225 -110.986916 10,350 321 268 -2048
2019-04-21 15:16:11 GMT 31.974335 -110.981247 10,550 321 270 -2112
2019-04-21 15:16:06 GMT 31.969849 -110.976967 10,700 321 271 -2176
2019-04-21 15:16:01 GMT 31.963930 -110.971222 10,925 321 273 -2304
2019-04-21 15:15:57 GMT 31.959600 -110.967072 11,100 326 276 -2240
2019-04-21 15:15:50 GMT 31.952682 -110.961586 11,325 333 280 -2304
2019-04-21 15:15:45 GMT 31.947647 -110.959000 11,475 343 284 -2240
2019-04-21 15:15:36 GMT 31.934416 -110.955803 11,825 353 293 -2176
2019-04-21 15:15:29 GMT 31.924805 -110.954224 12,075 353 296 -2240
2019-04-21 15:15:25 GMT 31.919752 -110.953453 12,200 353 296 -2176
2019-04-21 15:15:18 GMT 31.910385 -110.952026 12,450 354 296 -2240
2019-04-21 15:15:11 GMT 31.902191 -110.950874 12,675 354 295 -2304
2019-04-21 15:15:07 GMT 31.895645 -110.950050 12,850 354 295 -2240
2019-04-21 15:15:03 GMT 31.889772 -110.949356 13,000 355 295 -2240
2019-04-21 15:14:56 GMT 31.879532 -110.948128 13,225 355 295 -2048
2019-04-21 15:14:53 GMT 31.874502 -110.947563 13,350 355 295 -1920
2019-04-21 15:14:45 GMT 31.864838 -110.946533 13,525 355 297 -1408
2019-04-21 15:14:41 GMT 31.860718 -110.946091 13,600 356 298 -1344
2019-04-21 15:14:35 GMT 31.851059 -110.945107 13,750 356 311 -1344
2019-04-21 15:14:32 GMT 31.845795 -110.944504 13,825 355 300 -1344
2019-04-21 15:14:20 GMT 31.831768 -110.942856 14,050 354 299 -1472
2019-04-21 15:14:13 GMT 31.820177 -110.941399 14,225 354 300 -1344
2019-04-21 15:14:09 GMT 31.816267 -110.940895 14,275 354 300 -1280
2019-04-21 15:14:00 GMT 31.802765 -110.939171 14,475 354 303 -1344
2019-04-21 15:13:51 GMT 31.790850 -110.937752 14,675 355 304 -1344
2019-04-21 15:13:48 GMT 31.787218 -110.937309 14,725 355 305 -1408
2019-04-21 15:13:38 GMT 31.772369 -110.935600 14,950 355 307 -1472
2019-04-21 15:13:28 GMT 31.757263 -110.934074 15,150 356 310 -1344
2019-04-21 15:13:18 GMT 31.744858 -110.932884 15,375 356 313 -1344
2019-04-21 15:13:15 GMT 31.738058 -110.932198 15,475 356 313 -1344
2019-04-21 15:13:06 GMT 31.725582 -110.930931 15,650 356 314 -1408
2019-04-21 15:12:58 GMT 31.713665 -110.929779 15,825 356 314 -1344
2019-04-21 15:12:55 GMT 31.710297 -110.929443 15,875 356 315 -1344
2019-04-21 15:12:45 GMT 31.694458 -110.928040 16,125 356 319 -1408
2019-04-21 15:12:36 GMT 31.681776 -110.927086 16,300 359 326 -1408
2019-04-21 15:12:33 GMT 31.678619 -110.927071 16,350 0 328 -1408
2019-04-21 15:12:25 GMT 31.661682 -110.929604 16,600 14 342 -1600
2019-04-21 15:12:13 GMT 31.648306 -110.933792 16,850 12 342 -1984
2019-04-21 15:12:04 GMT 31.632019 -110.936172 17,175 2 335 -1984
2019-04-21 15:11:59 GMT 31.625031 -110.936539 17,325 2 335 -1920
2019-04-21 15:11:51 GMT 31.612600 -110.937195 17,550 2 335 -1856
2019-04-21 15:11:41 GMT 31.596268 -110.937950 17,875 2 335 -1856
2019-04-21 15:11:32 GMT 31.583738 -110.938568 18,125 2 333 -1920
2019-04-21 15:11:29 GMT 31.578804 -110.938789 18,200 2 332 -1920
2019-04-21 15:11:21 GMT 31.565781 -110.939346 18,450 2 330 -1856
2019-04-21 15:11:09 GMT 31.547335 -110.940163 18,775 2 328 -1472
2019-04-21 15:11:02 GMT 31.538815 -110.940491 18,900 2 328 -1472
2019-04-21 15:10:59 GMT 31.532867 -110.940750 18,975 2 328 -1408
2019-04-21 15:10:49 GMT 31.517395 -110.941452 19,200 2 327 -1408
2019-04-21 15:10:37 GMT 31.500732 -110.942200 19,450 2 327 -1408
2019-04-21 15:10:27 GMT 31.484861 -110.942909 19,675 2 326 -1408
2019-04-21 15:10:16 GMT 31.467819 -110.943710 19,925 2 325 -1408
2019-04-21 15:10:05 GMT 31.451889 -110.944412 20,150 2 322 -1408
2019-04-21 15:09:55 GMT 31.435501 -110.945114 20,400 2 320 -1408
2019-04-21 15:09:43 GMT 31.419571 -110.945808 20,625 1 317 -1408
2019-04-21 15:09:33 GMT 31.404099 -110.946457 20,850 2 314 -1408
2019-04-21 15:09:23 GMT 31.388870 -110.947083 21,075 1 311 -1408
2019-04-21 15:09:12 GMT 31.373245 -110.947586 21,300 1 309 -1408
2019-04-21 15:09:01 GMT 31.358368 -110.948021 21,550 0 306 -1472
2019-04-21 15:08:51 GMT 31.343307 -110.946838 21,775 351 296 -1408
2019-04-21 15:08:39 GMT 31.328979 -110.942314 21,975 340 287 -832
2019-04-21 15:08:29 GMT 31.316809 -110.935219 21,975 328 285 0
2019-04-21 15:08:18 GMT 31.305405 -110.925720 22,000 324 293 -128
2019-04-21 15:08:08 GMT 31.292507 -110.914726 22,000 324 307 128
2019-04-21 15:07:57 GMT 31.279844 -110.903908 22,025 324 322 -576
2019-04-21 15:07:46 GMT 31.266495 -110.892548 22,275 324 332 -1920
2019-04-21 15:07:35 GMT 31.252611 -110.880783 22,750 324 335 -2752
2019-04-21 15:07:23 GMT 31.239349 -110.869606 23,200 325 338 -2752
2019-04-21 15:07:13 GMT 31.225985 -110.858315 23,650 325 340 -2752
2019-04-21 15:07:03 GMT 31.212250 -110.846718 24,125 324 343 -2752
2019-04-21 15:06:52 GMT 31.197912 -110.834579 24,625 325 345 -2752
2019-04-21 15:06:40 GMT 31.184006 -110.822807 25,075 325 347 -2752
2019-04-21 15:06:30 GMT 31.170074 -110.811020 25,550 325 349 -2752
2019-04-21 15:06:20 GMT 31.155716 -110.798950 26,025 324 351 -2688
2019-04-21 15:06:09 GMT 31.141983 -110.787315 26,475 325 353 -2752
2019-04-21 15:05:57 GMT 31.127380 -110.774986 26,950 325 354 -2752
2019-04-21 15:05:47 GMT 31.113420 -110.763229 27,400 325 355 -2752
2019-04-21 15:05:36 GMT 31.097534 -110.749886 27,925 325 355 -2688
2019-04-21 15:05:24 GMT 31.083664 -110.738205 28,375 325 355 -2624
2019-04-21 15:05:14 GMT 31.069057 -110.726089 28,825 325 354 -2624
2019-04-21 15:05:03 GMT 31.054905 -110.714394 29,275 325 353 -2688
2019-04-21 15:04:53 GMT 31.040335 -110.702194 29,775 325 350 -2752
2019-04-21 15:04:42 GMT 31.025711 -110.690109 30,250 325 347 -2752
2019-04-21 15:04:31 GMT 31.012308 -110.678909 30,700 324 343 -2688
2019-04-21 15:04:20 GMT 30.998251 -110.666931 31,175 324 339 -2688
2019-04-21 15:04:09 GMT 30.984564 -110.655342 31,650 325 335 -2688
2019-04-21 15:03:58 GMT 30.971064 -110.643913 32,125 324 330 -2688
2019-04-21 15:03:48 GMT 30.957779 -110.632538 32,575 324 324 -2496
2019-04-21 15:03:36 GMT 30.944641 -110.621445 32,950 325 323 -2176
2019-04-21 15:03:26 GMT 30.931595 -110.610405 33,325 324 322 -2112
2019-04-21 15:03:15 GMT 30.918823 -110.599525 33,675 324 322 -2112
2019-04-21 15:03:05 GMT 30.905333 -110.588211 34,050 325 325 -2240
2019-04-21 15:02:54 GMT 30.892391 -110.577339 34,425 325 325 -2176
2019-04-21 15:02:42 GMT 30.879089 -110.566193 34,800 325 324 -2112
2019-04-21 15:02:32 GMT 30.866455 -110.555634 35,150 325 322 -2176
2019-04-21 15:02:22 GMT 30.853008 -110.544434 35,525 325 321 -2112
2019-04-21 15:02:11 GMT 30.840317 -110.533821 35,875 325 321 -2112
2019-04-21 15:02:00 GMT 30.826658 -110.522354 36,275 324 322 -2176
2019-04-21 15:01:49 GMT 30.813623 -110.511368 36,650 324 322 -2112
2019-04-21 15:01:37 GMT 30.799210 -110.499252 37,050 324 322 -2048
2019-04-21 15:01:26 GMT 30.785202 -110.487457 37,425 325 322 -2112
2019-04-21 15:01:15 GMT 30.773071 -110.477280 37,775 325 323 -2112
2019-04-21 15:01:04 GMT 30.759018 -110.465538 38,175 325 323 -2112
2019-04-21 15:00:56 GMT 30.748764 -110.456970 38,475 325 324 -2112
2019-04-21 15:00:53 GMT 30.745705 -110.454453 38,550 325 324 -2112
2019-04-21 15:00:45 GMT 30.735580 -110.445984 38,850 325 324 -2112
2019-04-21 15:00:42 GMT 30.731918 -110.442917 38,950 325 325 -2048
2019-04-21 15:00:31 GMT 30.718964 -110.432091 39,300 325 326 -1984
2019-04-21 15:00:23 GMT 30.709671 -110.424339 39,550 325 325 -1984
2019-04-21 15:00:19 GMT 30.705780 -110.421051 39,650 325 325 -1920
2019-04-21 15:00:13 GMT 30.696213 -110.413025 39,875 325 325 -1536
2019-04-21 15:00:09 GMT 30.691936 -110.409470 39,925 325 325 -1216
2019-04-21 15:00:01 GMT 30.683371 -110.402267 39,975 325 328 -192
2019-04-21 14:59:51 GMT 30.670303 -110.391380 39,975 325 335 -64
2019-04-21 14:59:41 GMT 30.657074 -110.380341 40,000 325 341 -128
2019-04-21 14:59:29 GMT 30.642792 -110.368439 39,975 325 350 -192
2019-04-21 14:59:19 GMT 30.628487 -110.356621 40,000 325 359 64
2019-04-21 14:59:09 GMT 30.613823 -110.344376 40,000 325 363 -64
2019-04-21 14:58:57 GMT 30.598274 -110.331467 40,000 325 363 0
2019-04-21 14:58:46 GMT 30.584681 -110.320091 40,000 325 362 -128
2019-04-21 14:58:37 GMT 30.570374 -110.308174 40,000 325 361 -64
2019-04-21 14:58:25 GMT 30.555130 -110.295517 40,000 325 361 0
2019-04-21 14:58:14 GMT 30.541031 -110.283775 40,000 325 360 -64
2019-04-21 14:58:05 GMT 30.527096 -110.272247 40,000 325 359 0
2019-04-21 14:57:54 GMT 30.512756 -110.260330 40,000 325 358 -64
2019-04-21 14:57:42 GMT 30.497498 -110.247696 39,975 325 358 0
2019-04-21 14:57:31 GMT 30.482546 -110.235275 39,975 325 357 -128
2019-04-21 14:57:20 GMT 30.467926 -110.223083 40,000 325 357 -64
2019-04-21 14:57:08 GMT 30.451960 -110.209793 39,975 325 357 -64
2019-04-21 14:57:00 GMT 30.439344 -110.199356 40,000 325 356 -64
2019-04-21 14:56:48 GMT 30.422958 -110.185783 40,000 325 356 -64
2019-04-21 14:56:37 GMT 30.409927 -110.174988 40,000 325 356 -64
2019-04-21 14:56:26 GMT 30.395737 -110.163200 40,000 325 356 -64
2019-04-21 14:56:16 GMT 30.380722 -110.150810 40,000 325 355 -64
2019-04-21 14:56:05 GMT 30.365326 -110.138046 40,000 325 356 0
2019-04-21 14:55:54 GMT 30.351686 -110.126732 40,000 325 355 -64
2019-04-21 14:55:42 GMT 30.336975 -110.114540 40,000 325 355 -64
2019-04-21 14:55:14 GMT 30.297964 -110.082291 40,000 325 354 -64
2019-04-21 14:55:10 GMT 30.292658 -110.077896 40,000 325 354 -64
2019-04-21 14:54:59 GMT 30.279144 -110.066742 40,000 325 354 -64
2019-04-21 14:54:45 GMT 30.260073 -110.050980 40,000 325 354 0
2019-04-21 14:53:44 GMT 30.178940 -109.984077 40,000 325 356 -64
2019-04-21 14:53:37 GMT 30.168596 -109.975563 40,000 325 356 -64
2019-04-21 14:53:33 GMT 30.162003 -109.970184 40,000 325 356 0
2019-04-21 14:53:23 GMT 30.148865 -109.959358 40,000 325 356 -64
2019-04-21 14:53:12 GMT 30.135178 -109.948105 40,000 325 356 -64
2019-04-21 14:53:01 GMT 30.120987 -109.936363 40,000 325 356 0
2019-04-21 14:52:47 GMT 30.101515 -109.920357 39,975 325 356 0
2019-04-21 14:52:24 GMT 30.071869 -109.895920 40,000 325 356 -64
2019-04-21 14:52:21 GMT 30.067671 -109.892502 40,000 325 356 -64
2019-04-21 14:52:12 GMT 30.055481 -109.882401 40,000 325 356 -64
2019-04-21 14:52:06 GMT 30.047699 -109.875992 40,000 325 356 -64
2019-04-21 14:51:50 GMT 30.024424 -109.856911 40,000 325 357 -64
2019-04-21 14:51:41 GMT 30.013824 -109.848206 40,000 325 357 -64
2019-04-21 14:50:55 GMT 29.951710 -109.797363 40,000 325 357 0
2019-04-21 14:50:50 GMT 29.945005 -109.791817 40,000 325 357 -64
2019-04-21 14:50:40 GMT 29.930157 -109.779732 40,000 325 357 -64
2019-04-21 14:50:28 GMT 29.915497 -109.767746 40,000 325 356 -64
2019-04-21 14:50:19 GMT 29.902737 -109.757240 40,000 325 357 0
2019-04-21 14:50:08 GMT 29.886864 -109.744316 40,000 325 356 -64
2019-04-21 14:47:57 GMT 29.710556 -109.600456 40,000 325 359 -64
2019-04-21 14:47:42 GMT 29.691605 -109.584976 40,000 325 359 -64
2019-04-21 14:47:28 GMT 29.672256 -109.569183 40,000 325 359 -64
2019-04-21 14:47:25 GMT 29.667603 -109.565414 40,000 325 359 -64
2019-04-21 14:47:17 GMT 29.656631 -109.556458 40,000 325 359 0
2019-04-21 14:47:09 GMT 29.647259 -109.548882 40,000 325 360 0
2019-04-21 14:47:05 GMT 29.641663 -109.544357 39,975 325 359 0
2019-04-21 14:46:59 GMT 29.633514 -109.537758 40,000 325 359 -64
2019-04-21 14:46:44 GMT 29.611496 -109.519852 39,975 325 360 -64
2019-04-21 14:46:34 GMT 29.598331 -109.509132 40,000 325 360 -64
2019-04-21 14:46:23 GMT 29.583481 -109.497086 39,975 325 360 0
2019-04-21 14:44:47 GMT 29.453367 -109.391678 40,000 325 360 -64
2019-04-21 14:44:39 GMT 29.442856 -109.383156 39,975 325 360 -64
2019-04-21 14:44:19 GMT 29.414474 -109.360184 40,000 325 360 -64
2019-04-21 14:44:11 GMT 29.404083 -109.351784 40,000 325 360 -64
2019-04-21 14:43:59 GMT 29.387264 -109.338249 40,000 325 360 0
2019-04-21 14:43:49 GMT 29.373625 -109.327209 40,000 325 360 0
2019-04-21 14:43:39 GMT 29.360916 -109.316925 39,975 325 361 -64
2019-04-21 14:43:29 GMT 29.346577 -109.305351 40,000 325 361 0
2019-04-21 14:43:18 GMT 29.331619 -109.293312 39,975 325 362 -64
2019-04-21 14:43:08 GMT 29.317657 -109.282005 40,000 325 362 -128
2019-04-21 14:42:57 GMT 29.303421 -109.270493 40,000 325 363 64
2019-04-21 14:42:47 GMT 29.288992 -109.258873 40,000 325 363 -128
2019-04-21 14:42:35 GMT 29.272614 -109.245720 40,000 325 363 -64
2019-04-21 14:42:25 GMT 29.258286 -109.234154 40,000 325 363 -64
2019-04-21 14:42:14 GMT 29.243683 -109.222427 40,000 325 363 -64
2019-04-21 14:42:03 GMT 29.229265 -109.210831 40,000 325 363 64
2019-04-21 14:41:52 GMT 29.213470 -109.198135 40,000 325 362 -64
2019-04-21 14:41:42 GMT 29.199938 -109.187187 40,000 325 360 -64
2019-04-21 14:41:31 GMT 29.185181 -109.175346 39,975 325 360 -64
2019-04-21 14:41:21 GMT 29.171173 -109.164062 39,975 325 358 -64
2019-04-21 14:41:11 GMT 29.157303 -109.152924 40,000 325 358 -64
2019-04-21 14:41:00 GMT 29.142538 -109.141037 39,975 325 358 -64
2019-04-21 14:40:49 GMT 29.128281 -109.129578 39,975 325 359 -64
2019-04-21 14:40:22 GMT 29.090424 -109.099152 39,975 325 360 -64
2019-04-21 14:40:04 GMT 29.066938 -109.080399 39,975 325 362 -64
2019-04-21 14:39:57 GMT 29.056463 -109.071999 40,000 325 364 -192
2019-04-21 14:39:46 GMT 29.040962 -109.059608 40,000 326 366 64
2019-04-21 14:39:35 GMT 29.025925 -109.047600 40,000 325 367 -64
2019-04-21 14:39:24 GMT 29.010406 -109.035187 40,000 325 368 -64
2019-04-21 14:39:14 GMT 28.996271 -109.023903 40,000 325 369 -128
2019-04-21 14:39:03 GMT 28.981979 -109.012436 40,000 325 370 -64
2019-04-21 14:38:51 GMT 28.964447 -108.998428 40,000 325 370 0
2019-04-21 14:38:42 GMT 28.952232 -108.988686 39,975 326 369 64
2019-04-21 14:38:32 GMT 28.937531 -108.976929 39,975 325 368 -64
2019-04-21 14:38:21 GMT 28.922579 -108.964935 39,975 325 368 -64
2019-04-21 14:38:10 GMT 28.907318 -108.952736 39,975 325 368 -64
2019-04-21 14:37:59 GMT 28.891663 -108.940216 39,975 326 369 -64
2019-04-21 14:37:50 GMT 28.878754 -108.929916 40,000 325 370 64
2019-04-21 14:37:39 GMT 28.863785 -108.917915 40,000 325 370 -64
2019-04-21 14:37:28 GMT 28.847900 -108.905251 40,000 325 370 0
2019-04-21 14:37:18 GMT 28.834167 -108.894264 40,000 325 370 -64
2019-04-21 14:37:07 GMT 28.818466 -108.881744 40,000 325 370 64
2019-04-21 14:36:57 GMT 28.804569 -108.870689 40,000 325 370 -64
2019-04-21 14:36:46 GMT 28.789951 -108.859055 39,975 326 369 -64
2019-04-21 14:36:35 GMT 28.774544 -108.846779 40,000 326 369 -64
2019-04-21 14:36:25 GMT 28.760252 -108.835464 40,000 325 368 -64
2019-04-21 14:36:15 GMT 28.745590 -108.823807 40,000 326 368 0
2019-04-21 14:36:04 GMT 28.730484 -108.811813 40,000 326 368 -64
2019-04-21 14:35:53 GMT 28.715794 -108.800194 39,975 325 367 -64
2019-04-21 14:35:43 GMT 28.701416 -108.788788 40,000 325 367 -64
2019-04-21 14:35:33 GMT 28.686676 -108.777008 40,000 326 367 64
2019-04-21 14:35:22 GMT 28.671757 -108.765190 40,000 325 367 -128
2019-04-21 14:35:11 GMT 28.657278 -108.753716 40,000 326 366 0
2019-04-21 14:35:01 GMT 28.643080 -108.742462 40,000 326 366 -64
2019-04-21 14:34:50 GMT 28.626972 -108.729645 40,000 326 365 -64
2019-04-21 14:34:40 GMT 28.613611 -108.719139 39,975 326 365 -64
2019-04-21 14:34:30 GMT 28.599228 -108.707672 40,000 326 364 0
2019-04-21 14:34:19 GMT 28.584517 -108.696037 40,000 326 364 -64
2019-04-21 14:34:09 GMT 28.569946 -108.684525 40,000 326 364 -64
2019-04-21 14:33:58 GMT 28.555143 -108.672775 40,000 326 364 0
2019-04-21 14:33:47 GMT 28.540480 -108.661194 40,000 325 363 -128
2019-04-21 14:33:36 GMT 28.525255 -108.649132 40,000 326 363 0
2019-04-21 14:33:26 GMT 28.511196 -108.637985 40,000 326 363 -64
2019-04-21 14:33:15 GMT 28.496109 -108.626106 40,000 326 363 -64
2019-04-21 14:33:05 GMT 28.481636 -108.614662 40,000 326 363 -64
2019-04-21 14:32:53 GMT 28.465111 -108.601578 40,000 326 362 0
2019-04-21 14:32:44 GMT 28.452530 -108.591721 40,000 325 362 -64
2019-04-21 14:32:32 GMT 28.436993 -108.579391 39,975 326 363 -64
2019-04-21 14:32:22 GMT 28.423325 -108.568588 40,000 325 362 -64
2019-04-21 14:32:12 GMT 28.408722 -108.557068 40,000 326 362 0
2019-04-21 14:32:02 GMT 28.394669 -108.545975 40,000 326 362 -64
2019-04-21 14:31:51 GMT 28.379919 -108.534363 40,000 326 362 -64
2019-04-21 14:31:40 GMT 28.365463 -108.522949 40,000 325 362 -64
2019-04-21 14:31:30 GMT 28.350861 -108.511383 40,000 326 362 -64
2019-04-21 14:31:19 GMT 28.336439 -108.500008 40,000 326 361 0
2019-04-21 14:31:09 GMT 28.321823 -108.488533 40,000 326 361 0
2019-04-21 14:30:57 GMT 28.306181 -108.476204 39,975 326 360 0
2019-04-21 14:30:48 GMT 28.292728 -108.465645 40,000 326 360 -64
2019-04-21 14:30:37 GMT 28.278528 -108.454445 40,000 326 359 -64
2019-04-21 14:30:26 GMT 28.263062 -108.442291 40,000 326 358 -128
2019-04-21 14:30:15 GMT 28.248503 -108.430855 40,000 326 358 64
2019-04-21 14:30:04 GMT 28.233948 -108.419373 40,000 326 357 0
2019-04-21 14:29:54 GMT 28.219849 -108.408333 40,000 326 356 0
2019-04-21 14:29:44 GMT 28.205795 -108.397293 39,975 326 354 -64
2019-04-21 14:29:33 GMT 28.191513 -108.386040 40,000 326 353 -64
2019-04-21 14:29:23 GMT 28.177551 -108.375053 39,975 326 352 0
2019-04-21 14:29:12 GMT 28.163265 -108.363808 39,975 326 351 -64
2019-04-21 14:29:01 GMT 28.149160 -108.352715 39,975 326 351 -64
2019-04-21 14:28:51 GMT 28.134962 -108.341515 39,975 326 352 -128
2019-04-21 14:28:40 GMT 28.121277 -108.330742 39,975 326 354 64
2019-04-21 14:28:29 GMT 28.105957 -108.318748 39,975 326 357 -64
2019-04-21 14:28:19 GMT 28.092636 -108.308296 40,000 326 359 64
2019-04-21 14:28:09 GMT 28.078262 -108.297028 39,975 326 361 0
2019-04-21 14:27:58 GMT 28.063599 -108.285614 39,975 326 363 -64
2019-04-21 14:27:47 GMT 28.048609 -108.273872 39,975 326 366 -128
2019-04-21 14:27:36 GMT 28.032761 -108.261497 40,000 326 370 -64
2019-04-21 14:27:26 GMT 28.018768 -108.250549 40,000 326 373 64
2019-04-21 14:27:15 GMT 28.003080 -108.238274 40,000 326 376 -64
2019-04-21 14:27:05 GMT 27.987810 -108.226372 40,000 326 378 -64
2019-04-21 14:26:54 GMT 27.972542 -108.214470 40,000 326 379 0
2019-04-21 14:26:43 GMT 27.956945 -108.202301 40,000 326 380 -64
2019-04-21 14:26:33 GMT 27.942307 -108.190880 40,000 326 380 -256
2019-04-21 14:26:23 GMT 27.926926 -108.178848 40,000 326 381 0
2019-04-21 14:26:12 GMT 27.911179 -108.166565 40,000 326 383 -64
2019-04-21 14:26:01 GMT 27.895660 -108.154541 39,975 326 383 64
2019-04-21 14:25:51 GMT 27.880737 -108.142937 40,000 326 384 -64
2019-04-21 14:25:40 GMT 27.865173 -108.130814 40,000 326 385 0
2019-04-21 14:25:30 GMT 27.849783 -108.118782 40,000 326 385 -64
2019-04-21 14:25:19 GMT 27.834000 -108.106506 40,000 326 386 -64
2019-04-21 14:25:09 GMT 27.818501 -108.094429 40,000 326 388 0
2019-04-21 14:24:58 GMT 27.802689 -108.082146 40,000 326 388 0
2019-04-21 14:24:48 GMT 27.787262 -108.070175 40,000 326 389 64
2019-04-21 14:24:37 GMT 27.771111 -108.057617 39,975 326 388 -64
2019-04-21 14:24:26 GMT 27.755493 -108.045509 40,000 326 389 0
2019-04-21 14:24:15 GMT 27.738430 -108.032265 39,975 326 390 64
2019-04-21 14:24:04 GMT 27.722488 -108.019859 39,975 326 391 128
2019-04-21 14:23:54 GMT 27.707102 -108.007965 39,975 326 391 -128
2019-04-21 14:23:43 GMT 27.691727 -107.996017 39,975 326 392 128
2019-04-21 14:23:33 GMT 27.676437 -107.984207 40,000 326 393 -128
2019-04-21 14:23:23 GMT 27.660362 -107.971733 40,000 326 393 -64
2019-04-21 14:23:12 GMT 27.644348 -107.959274 39,975 326 393 64
2019-04-21 14:23:01 GMT 27.628784 -107.947205 40,000 326 391 -192
2019-04-21 14:22:51 GMT 27.612785 -107.934814 39,975 326 391 0
2019-04-21 14:22:40 GMT 27.596832 -107.922379 40,000 326 390 0
2019-04-21 14:22:30 GMT 27.581680 -107.910614 40,000 326 390 -64
2019-04-21 14:22:19 GMT 27.565933 -107.898384 40,000 326 390 64
2019-04-21 14:22:09 GMT 27.550360 -107.886322 40,000 326 388 64
2019-04-21 14:21:58 GMT 27.534439 -107.874084 39,975 326 388 -64
2019-04-21 14:21:47 GMT 27.517868 -107.861282 40,000 326 386 0
2019-04-21 14:21:37 GMT 27.503342 -107.849983 39,975 326 385 -128
2019-04-21 14:21:26 GMT 27.487467 -107.837730 40,000 326 383 192
2019-04-21 14:21:15 GMT 27.471407 -107.825264 40,000 326 383 -64
2019-04-21 14:21:05 GMT 27.456390 -107.813660 40,000 326 381 -192
2019-04-21 14:20:54 GMT 27.440735 -107.801582 40,000 326 380 64
2019-04-21 14:20:44 GMT 27.425629 -107.789925 39,975 326 380 -64
2019-04-21 14:20:33 GMT 27.410097 -107.777992 39,975 326 379 -64
2019-04-21 14:20:22 GMT 27.394781 -107.766106 39,975 326 379 64
2019-04-21 14:20:12 GMT 27.379257 -107.754166 39,975 326 379 0
2019-04-21 14:20:01 GMT 27.364151 -107.742554 40,000 326 380 -64
2019-04-21 14:19:51 GMT 27.348770 -107.730690 40,000 326 380 0
2019-04-21 14:19:40 GMT 27.333389 -107.718872 40,000 326 380 -64
2019-04-21 14:19:29 GMT 27.318157 -107.707108 39,975 326 381 0
2019-04-21 14:19:19 GMT 27.303131 -107.695602 40,000 326 380 -64
2019-04-21 14:19:08 GMT 27.286407 -107.682709 40,000 326 381 0
2019-04-21 14:18:58 GMT 27.272442 -107.671982 40,000 326 381 -64
2019-04-21 14:18:48 GMT 27.257265 -107.660309 39,975 326 381 -64
2019-04-21 14:18:37 GMT 27.241974 -107.648552 40,000 326 381 -64
2019-04-21 14:18:27 GMT 27.226547 -107.636681 39,975 326 381 64
2019-04-21 14:18:15 GMT 27.209610 -107.623680 39,975 326 381 0
2019-04-21 14:18:05 GMT 27.194607 -107.612137 39,975 326 381 -64
2019-04-21 14:17:54 GMT 27.178986 -107.600204 39,975 326 381 -64
2019-04-21 14:17:43 GMT 27.163513 -107.588333 40,000 326 382 -64
2019-04-21 14:17:33 GMT 27.147995 -107.576469 40,000 326 382 -64
2019-04-21 14:17:22 GMT 27.132599 -107.564713 40,000 326 383 -64
2019-04-21 14:17:12 GMT 27.116772 -107.552559 40,000 326 384 64
2019-04-21 14:17:01 GMT 27.101349 -107.540710 39,975 326 384 -128
2019-04-21 14:16:50 GMT 27.085464 -107.528534 39,975 326 384 64
2019-04-21 14:16:40 GMT 27.070450 -107.516975 40,000 326 386 -64
2019-04-21 14:16:30 GMT 27.055601 -107.505501 39,975 326 386 0
2019-04-21 14:16:19 GMT 27.039780 -107.493393 40,000 326 386 -64
2019-04-21 14:16:08 GMT 27.023947 -107.481255 40,000 326 387 -128
2019-04-21 14:15:58 GMT 27.008537 -107.469475 40,000 326 387 64
2019-04-21 14:15:47 GMT 26.992523 -107.457275 39,975 326 389 64
2019-04-21 14:15:37 GMT 26.977022 -107.445442 40,000 326 389 -64
2019-04-21 14:15:26 GMT 26.961241 -107.433403 40,000 326 389 0
2019-04-21 14:15:15 GMT 26.943876 -107.420250 40,000 326 390 0
2019-04-21 14:15:04 GMT 26.928654 -107.408630 40,000 326 389 0
2019-04-21 14:14:54 GMT 26.913107 -107.396797 39,975 326 389 -64
2019-04-21 14:14:43 GMT 26.896820 -107.384415 40,000 326 389 -64
2019-04-21 14:14:33 GMT 26.881622 -107.372803 40,000 326 389 0
2019-04-21 14:14:22 GMT 26.865669 -107.360619 40,000 326 389 -64
2019-04-21 14:14:12 GMT 26.850311 -107.348862 40,000 326 389 0
2019-04-21 14:14:01 GMT 26.834152 -107.336578 39,975 326 390 64
2019-04-21 14:13:51 GMT 26.818588 -107.324715 40,000 326 391 -64
2019-04-21 14:13:40 GMT 26.802870 -107.312759 39,975 326 391 0
2019-04-21 14:13:30 GMT 26.786949 -107.300720 39,975 326 392 -64
2019-04-21 14:13:19 GMT 26.770569 -107.288231 39,975 326 392 -64
2019-04-21 14:13:08 GMT 26.754913 -107.276367 39,975 326 393 -64
2019-04-21 14:12:58 GMT 26.739420 -107.264542 40,000 326 393 -128
2019-04-21 14:12:48 GMT 26.723602 -107.252472 40,000 326 394 64
2019-04-21 14:12:37 GMT 26.707392 -107.240189 40,000 326 395 -64
2019-04-21 14:12:26 GMT 26.691513 -107.228119 40,000 326 394 0
2019-04-21 14:12:16 GMT 26.675968 -107.216263 40,000 326 395 0
2019-04-21 14:12:05 GMT 26.658508 -107.203033 40,000 326 396 -64
2019-04-21 14:11:55 GMT 26.643631 -107.191734 40,000 326 396 -64
2019-04-21 14:11:44 GMT 26.627415 -107.179451 40,000 326 396 64
2019-04-21 14:11:34 GMT 26.611496 -107.167381 40,000 326 395 -64
2019-04-21 14:11:23 GMT 26.595383 -107.155205 39,975 326 395 0
2019-04-21 14:11:12 GMT 26.579185 -107.142899 40,000 326 395 -128
2019-04-21 14:11:02 GMT 26.563568 -107.131058 40,000 326 395 0
2019-04-21 14:10:52 GMT 26.548229 -107.119446 40,000 326 396 -64
2019-04-21 14:10:41 GMT 26.532076 -107.107300 40,000 326 396 64
2019-04-21 14:10:31 GMT 26.515823 -107.094986 40,000 326 396 -64
2019-04-21 14:10:20 GMT 26.499344 -107.082550 39,975 326 397 -64
2019-04-21 14:10:09 GMT 26.483551 -107.070580 40,000 326 396 -64
2019-04-21 14:09:59 GMT 26.467392 -107.058449 40,000 326 397 0
2019-04-21 14:09:48 GMT 26.451279 -107.046272 40,000 326 396 -64
2019-04-21 14:09:38 GMT 26.435440 -107.034302 40,000 326 396 0
2019-04-21 14:09:27 GMT 26.419466 -107.022263 40,000 326 396 -64
2019-04-21 14:09:17 GMT 26.403404 -107.010109 40,000 326 395 0
2019-04-21 14:09:06 GMT 26.387299 -106.997963 40,000 326 395 -64
2019-04-21 14:08:55 GMT 26.370804 -106.985481 40,000 326 395 -64
2019-04-21 14:08:45 GMT 26.355103 -106.973671 39,975 326 393 64
2019-04-21 14:08:34 GMT 26.338604 -106.961250 40,000 326 393 -64
2019-04-21 14:08:23 GMT 26.322638 -106.949211 40,000 326 392 -64
2019-04-21 14:08:13 GMT 26.306808 -106.937340 40,000 326 392 -64
2019-04-21 14:08:02 GMT 26.291153 -106.925575 40,000 326 392 0
2019-04-21 14:07:50 GMT 26.272966 -106.911865 39,975 326 391 0
2019-04-21 14:07:41 GMT 26.259293 -106.901535 39,975 326 391 0
2019-04-21 14:07:31 GMT 26.243824 -106.889946 40,000 326 391 -64
2019-04-21 14:07:21 GMT 26.228394 -106.878319 40,000 326 391 0
2019-04-21 14:07:10 GMT 26.212029 -106.866020 40,000 326 390 0
2019-04-21 14:06:59 GMT 26.196625 -106.854424 40,000 326 390 0
2019-04-21 14:06:49 GMT 26.180466 -106.842300 40,000 326 388 -64
2019-04-21 14:06:38 GMT 26.165384 -106.830948 40,000 326 388 0
2019-04-21 14:06:27 GMT 26.148193 -106.818100 39,975 326 389 -64
We lost coverage of the aircraft here for a total of 36 minutes
2019-04-21 13:30:21 GMT 23.406097 -103.842072 40,000 320 388 -64
2019-04-21 13:29:49 GMT 23.362976 -103.802673 39,975 320 386 0
2019-04-21 13:29:38 GMT 23.347483 -103.788506 39,975 320 386 -64
2019-04-21 13:29:28 GMT 23.333239 -103.775536 39,975 320 386 -64
2019-04-21 13:29:17 GMT 23.318155 -103.761749 39,975 320 386 -64
2019-04-21 13:29:01 GMT 23.296326 -103.741798 39,975 320 387 -64
2019-04-21 13:28:54 GMT 23.286713 -103.733063 39,975 320 388 -64
2019-04-21 13:28:28 GMT 23.251026 -103.700508 39,975 320 388 -64
2019-04-21 13:28:24 GMT 23.245926 -103.695854 39,975 321 388 -64
2019-04-21 13:28:13 GMT 23.231003 -103.682320 40,000 321 388 -64
2019-04-21 13:28:03 GMT 23.216810 -103.669380 40,000 320 389 -64
2019-04-21 13:27:53 GMT 23.202753 -103.656563 40,000 320 388 -64
2019-04-21 13:27:42 GMT 23.187576 -103.642784 40,000 320 388 -64
2019-04-21 13:27:21 GMT 23.158813 -103.616653 40,000 320 386 -64
2019-04-21 13:27:08 GMT 23.141235 -103.600677 40,000 320 386 -64
2019-04-21 13:26:59 GMT 23.129013 -103.589531 40,000 320 386 -64
2019-04-21 13:26:49 GMT 23.115417 -103.577202 39,975 320 386 -64
2019-04-21 13:26:39 GMT 23.101269 -103.564301 40,000 320 386 -64
2019-04-21 13:26:29 GMT 23.086853 -103.551186 39,975 320 388 0
2019-04-21 13:26:18 GMT 23.071976 -103.537651 39,975 320 388 -64
2019-04-21 13:26:07 GMT 23.057693 -103.524666 39,975 320 388 -64
2019-04-21 13:25:56 GMT 23.042706 -103.510994 39,975 320 388 -64
2019-04-21 13:25:46 GMT 23.027809 -103.497520 40,000 320 388 -128
2019-04-21 13:25:35 GMT 23.013885 -103.484871 40,000 320 388 0
2019-04-21 13:25:25 GMT 22.999413 -103.471680 40,000 321 388 0
2019-04-21 13:25:14 GMT 22.983912 -103.457695 40,000 321 388 0
2019-04-21 13:25:04 GMT 22.969711 -103.444817 40,000 321 388 -64
2019-04-21 13:24:53 GMT 22.955515 -103.431953 40,000 321 388 -64
2019-04-21 13:24:42 GMT 22.940735 -103.418602 40,000 321 388 0
2019-04-21 13:24:37 GMT 22.931351 -103.410110 40,000 321 388 0
2019-04-21 13:24:32 GMT 22.925953 -103.405205 39,975 320 388 -64
2019-04-21 13:24:27 GMT 22.919220 -103.399078 39,975 321 388 0
2019-04-21 13:24:21 GMT 22.911615 -103.392235 40,000 321 388 -64
2019-04-21 13:24:17 GMT 22.905237 -103.386482 40,000 321 388 -64
2019-04-21 13:24:10 GMT 22.896011 -103.378151 40,000 321 388 -64
2019-04-21 13:24:07 GMT 22.889648 -103.372406 40,000 321 387 0
2019-04-21 13:23:59 GMT 22.881264 -103.364815 40,000 321 387 0
2019-04-21 13:23:50 GMT 22.867630 -103.352432 40,000 320 388 0
2019-04-21 13:23:42 GMT 22.856873 -103.342697 39,975 320 388 0
2019-04-21 13:23:39 GMT 22.853577 -103.339699 39,975 320 388 -64
2019-04-21 13:23:35 GMT 22.845840 -103.332710 40,000 320 388 -64
2019-04-21 13:23:26 GMT 22.835829 -103.323570 40,000 320 388 -64
2019-04-21 13:23:23 GMT 22.831284 -103.319427 40,000 320 388 0
2019-04-21 13:23:18 GMT 22.823677 -103.312584 39,975 321 388 0
2019-04-21 13:23:12 GMT 22.816229 -103.305817 39,975 321 388 -64
2019-04-21 13:23:07 GMT 22.809620 -103.299812 40,000 321 388 -64
2019-04-21 13:23:03 GMT 22.801565 -103.292595 40,000 321 389 -64
2019-04-21 13:22:56 GMT 22.794250 -103.285965 39,975 321 389 -64
2019-04-21 13:22:51 GMT 22.786469 -103.279022 40,000 321 389 -64
2019-04-21 13:22:45 GMT 22.777964 -103.271431 40,000 321 389 -64
2019-04-21 13:22:41 GMT 22.772377 -103.266449 40,000 321 390 64
2019-04-21 13:22:30 GMT 22.756689 -103.252617 40,000 321 390 -128
2019-04-21 13:22:24 GMT 22.749474 -103.246056 40,000 320 389 -64
2019-04-21 13:22:19 GMT 22.742723 -103.239594 40,000 318 389 64
2019-04-21 13:22:14 GMT 22.736067 -103.233032 39,975 318 389 64
2019-04-21 13:22:09 GMT 22.728106 -103.225197 40,000 318 388 -64
2019-04-21 13:22:04 GMT 22.721960 -103.219147 40,000 318 388 -64
2019-04-21 13:21:59 GMT 22.713955 -103.211311 40,000 318 389 -64
2019-04-21 13:21:53 GMT 22.707855 -103.205261 40,000 318 389 -64
2019-04-21 13:21:47 GMT 22.699951 -103.197578 40,000 318 389 -64
2019-04-21 13:21:42 GMT 22.693424 -103.191170 40,000 318 388 -64
2019-04-21 13:21:37 GMT 22.685465 -103.183289 40,000 318 388 -64
2019-04-21 13:21:32 GMT 22.679600 -103.177544 40,000 318 388 -64
2019-04-21 13:21:27 GMT 22.671358 -103.169403 40,000 318 388 -64
2019-04-21 13:21:21 GMT 22.665115 -103.163269 40,000 318 388 -64
2019-04-21 13:21:16 GMT 22.658203 -103.156425 40,000 318 388 0
2019-04-21 13:21:10 GMT 22.651016 -103.149384 40,000 318 388 0
2019-04-21 13:20:57 GMT 22.633045 -103.131767 40,000 318 387 0
2019-04-21 13:20:54 GMT 22.628128 -103.126915 40,000 318 387 64
2019-04-21 13:20:49 GMT 22.622269 -103.121170 39,975 318 388 64
2019-04-21 13:20:43 GMT 22.615128 -103.114128 39,975 318 388 -64
2019-04-21 13:20:38 GMT 22.607941 -103.107040 39,975 318 388 -64
2019-04-21 13:20:34 GMT 22.601391 -103.100639 40,000 318 388 -64
2019-04-21 13:20:27 GMT 22.593662 -103.093056 39,975 318 388 0
2019-04-21 13:20:23 GMT 22.586727 -103.086296 39,975 318 388 -64
2019-04-21 13:20:16 GMT 22.579147 -103.078827 40,000 318 388 0
2019-04-21 13:20:11 GMT 22.572109 -103.071899 40,000 318 388 -64
2019-04-21 13:20:06 GMT 22.565048 -103.064995 40,000 318 388 -64
2019-04-21 13:20:00 GMT 22.557726 -103.057808 40,000 318 387 0
2019-04-21 13:19:55 GMT 22.551067 -103.051247 40,000 318 388 0
2019-04-21 13:19:51 GMT 22.543619 -103.043922 40,000 318 388 -64
2019-04-21 13:19:45 GMT 22.537079 -103.037529 39,975 318 388 -64
2019-04-21 13:19:39 GMT 22.529388 -103.029984 40,000 318 388 -64
2019-04-21 13:19:34 GMT 22.523090 -103.023834 40,000 318 387 -64
2019-04-21 13:19:30 GMT 22.515642 -103.016510 40,000 318 387 -64
2019-04-21 13:19:24 GMT 22.508986 -103.010002 40,000 318 387 -64
2019-04-21 13:19:19 GMT 22.501144 -103.002319 40,000 318 388 0
2019-04-21 13:19:12 GMT 22.494041 -102.995399 40,000 318 388 0
2019-04-21 13:19:08 GMT 22.487663 -102.989143 40,000 318 388 0
2019-04-21 13:19:03 GMT 22.481007 -102.982635 40,000 318 389 0
2019-04-21 13:18:56 GMT 22.472719 -102.974495 40,000 318 389 0
2019-04-21 13:18:52 GMT 22.466171 -102.968109 40,000 318 389 0
2019-04-21 13:18:47 GMT 22.458849 -102.960915 40,000 318 389 -64
2019-04-21 13:18:41 GMT 22.452703 -102.954918 40,000 318 389 0
2019-04-21 13:18:30 GMT 22.436922 -102.939453 40,000 318 389 0
2019-04-21 13:18:20 GMT 22.424515 -102.927315 40,000 318 390 -64
2019-04-21 13:18:10 GMT 22.410480 -102.913567 40,000 318 389 0
2019-04-21 13:18:04 GMT 22.402039 -102.905342 40,000 318 390 -64
2019-04-21 13:17:59 GMT 22.395769 -102.899223 40,000 318 390 -64
2019-04-21 13:17:52 GMT 22.384783 -102.888489 40,000 318 390 -64
2019-04-21 13:17:48 GMT 22.381292 -102.885078 40,000 318 390 -64
2019-04-21 13:17:43 GMT 22.372604 -102.876625 40,000 318 390 -64
2019-04-21 13:17:37 GMT 22.366974 -102.871132 40,000 318 390 -64
2019-04-21 13:17:30 GMT 22.357361 -102.861694 40,000 318 390 0
2019-04-21 13:17:27 GMT 22.353333 -102.857750 40,000 318 390 64
2019-04-21 13:17:21 GMT 22.344097 -102.848763 39,975 318 390 -64
2019-04-21 13:17:16 GMT 22.338743 -102.843529 40,000 318 390 -64
2019-04-21 13:17:11 GMT 22.329945 -102.834877 40,000 318 390 -64
2019-04-21 13:16:59 GMT 22.316257 -102.821556 40,000 318 390 -64
2019-04-21 13:16:55 GMT 22.309662 -102.815102 40,000 318 390 0
2019-04-21 13:16:49 GMT 22.301376 -102.807014 40,000 318 390 -64
2019-04-21 13:16:45 GMT 22.296249 -102.802071 40,000 318 390 0
2019-04-21 13:16:39 GMT 22.287024 -102.793022 40,000 318 390 0
2019-04-21 13:16:34 GMT 22.282333 -102.788437 40,000 318 390 -64
2019-04-21 13:16:28 GMT 22.273453 -102.779793 40,000 318 391 -64
2019-04-21 13:16:23 GMT 22.267822 -102.774300 40,000 318 391 -64
2019-04-21 13:16:15 GMT 22.257231 -102.763924 39,975 318 390 0
2019-04-21 13:16:12 GMT 22.253082 -102.759872 39,975 318 390 -64
2019-04-21 13:16:06 GMT 22.243698 -102.750732 40,000 318 391 -64
2019-04-21 13:16:02 GMT 22.239120 -102.746284 40,000 318 390 0
2019-04-21 13:15:56 GMT 22.230515 -102.737900 39,975 318 391 0
2019-04-21 13:15:52 GMT 22.225388 -102.732956 39,975 318 391 0
2019-04-21 13:15:45 GMT 22.216232 -102.724014 39,975 318 391 -64
2019-04-21 13:15:40 GMT 22.210052 -102.718025 40,000 318 391 -64
2019-04-21 13:15:34 GMT 22.200529 -102.708687 40,000 318 391 -64
2019-04-21 13:15:31 GMT 22.196991 -102.705330 40,000 318 391 -64
2019-04-21 13:15:23 GMT 22.187164 -102.695747 40,000 319 391 -64
2019-04-21 13:15:20 GMT 22.182587 -102.691307 40,000 319 391 -64
2019-04-21 13:15:13 GMT 22.172607 -102.681618 40,000 318 391 0
2019-04-21 13:15:09 GMT 22.168455 -102.677559 40,000 318 391 -64
2019-04-21 13:15:03 GMT 22.157982 -102.667336 40,000 318 391 0
2019-04-21 13:14:59 GMT 22.154343 -102.663788 40,000 318 391 -64
2019-04-21 13:14:51 GMT 22.143539 -102.653305 40,000 318 392 0
2019-04-21 13:14:48 GMT 22.139639 -102.649536 40,000 318 392 64
2019-04-21 13:14:41 GMT 22.129398 -102.639565 40,000 318 392 0
2019-04-21 13:14:37 GMT 22.125347 -102.635651 40,000 318 392 0
2019-04-21 13:14:31 GMT 22.115753 -102.626335 40,000 318 392 -64
2019-04-21 13:14:27 GMT 22.111055 -102.621712 40,000 318 392 -64
2019-04-21 13:14:19 GMT 22.100534 -102.611488 40,000 318 392 -64
2019-04-21 13:14:16 GMT 22.096207 -102.607323 40,000 318 392 0
2019-04-21 13:14:09 GMT 22.086914 -102.598274 39,975 318 392 0
2019-04-21 13:14:06 GMT 22.082336 -102.593826 39,975 318 392 0
2019-04-21 13:13:59 GMT 22.072311 -102.584137 40,000 318 392 -64
2019-04-21 13:13:55 GMT 22.068237 -102.580193 40,000 318 392 -64
2019-04-21 13:13:45 GMT 22.053955 -102.566261 40,000 318 392 0
2019-04-21 13:13:37 GMT 22.043276 -102.555946 40,000 318 392 0
2019-04-21 13:13:34 GMT 22.039627 -102.552376 40,000 318 392 0
2019-04-21 13:13:27 GMT 22.028706 -102.541756 40,000 318 392 -64
2019-04-21 13:13:23 GMT 22.025345 -102.538498 40,000 318 392 -64
2019-04-21 13:13:15 GMT 22.014133 -102.527618 40,000 318 392 64
2019-04-21 13:13:12 GMT 22.009964 -102.523567 40,000 318 392 64
2019-04-21 13:13:05 GMT 22.000534 -102.514374 40,000 318 392 -64
2019-04-21 13:13:02 GMT 21.996351 -102.510323 40,000 318 392 -64
2019-04-21 13:12:55 GMT 21.986111 -102.500359 40,000 318 392 -64
2019-04-21 13:12:49 GMT 21.978973 -102.493454 40,000 318 392 64
2019-04-21 13:12:44 GMT 21.971695 -102.486359 40,000 318 391 -64
2019-04-21 13:12:40 GMT 21.967392 -102.482170 40,000 318 392 -64
2019-04-21 13:12:30 GMT 21.953110 -102.468285 40,000 318 392 -64
2019-04-21 13:12:23 GMT 21.942856 -102.458344 40,000 318 392 -64
2019-04-21 13:12:19 GMT 21.939056 -102.454704 40,000 318 392 -64
2019-04-21 13:12:11 GMT 21.928432 -102.444359 40,000 318 392 0
2019-04-21 13:12:07 GMT 21.922897 -102.439018 40,000 318 392 -64
2019-04-21 13:12:01 GMT 21.914246 -102.430679 40,000 318 392 -64
2019-04-21 13:11:58 GMT 21.910721 -102.427284 40,000 318 392 -64
2019-04-21 13:11:51 GMT 21.899523 -102.416435 40,000 318 392 0
2019-04-21 13:11:48 GMT 21.896164 -102.413155 40,000 318 392 -64
2019-04-21 13:11:40 GMT 21.885509 -102.402855 40,000 318 392 -64
2019-04-21 13:11:36 GMT 21.881182 -102.398682 40,000 318 392 0
2019-04-21 13:11:29 GMT 21.870575 -102.388382 40,000 318 392 -64
2019-04-21 13:11:26 GMT 21.867168 -102.385101 40,000 318 391 -64
2019-04-21 13:11:19 GMT 21.853317 -102.371651 40,000 318 392 0
2019-04-21 13:11:05 GMT 21.838633 -102.357430 40,000 319 391 0
2019-04-21 13:10:58 GMT 21.828112 -102.347260 39,975 319 392 0
2019-04-21 13:10:54 GMT 21.824574 -102.343903 39,975 318 392 0
2019-04-21 13:10:47 GMT 21.813772 -102.333427 39,975 318 392 -64
2019-04-21 13:10:44 GMT 21.810104 -102.329903 39,975 318 392 -64
2019-04-21 13:10:36 GMT 21.799204 -102.319336 39,975 318 392 0
2019-04-21 13:10:33 GMT 21.796223 -102.316437 39,975 318 392 -64
2019-04-21 13:10:26 GMT 21.784470 -102.305084 40,000 318 392 -64
2019-04-21 13:10:23 GMT 21.781769 -102.302490 40,000 318 392 -64
2019-04-21 13:10:15 GMT 21.766891 -102.288155 40,000 319 391 -64
2019-04-21 13:10:04 GMT 21.755957 -102.277626 40,000 319 391 0
2019-04-21 13:09:51 GMT 21.738686 -102.260948 40,000 319 391 0
2019-04-21 13:09:40 GMT 21.723953 -102.246758 40,000 319 391 -64
2019-04-21 13:09:30 GMT 21.710449 -102.233727 40,000 319 391 0
2019-04-21 13:09:22 GMT 21.698044 -102.221794 40,000 319 391 -64
2019-04-21 13:09:19 GMT 21.696043 -102.219849 40,000 319 391 -64
2019-04-21 13:09:11 GMT 21.683380 -102.207642 39,975 318 390 0
2019-04-21 13:09:08 GMT 21.681473 -102.205811 39,975 318 390 0
2019-04-21 13:08:58 GMT 21.667053 -102.191925 40,000 318 390 -64
2019-04-21 13:08:47 GMT 21.652935 -102.178291 40,000 319 390 -64
2019-04-21 13:08:37 GMT 21.638535 -102.164413 40,000 318 390 0
2019-04-21 13:08:26 GMT 21.624678 -102.151031 40,000 319 391 -64
2019-04-21 13:08:16 GMT 21.610519 -102.137398 40,000 319 391 0
2019-04-21 13:08:05 GMT 21.596329 -102.123772 40,000 319 391 -64
2019-04-21 13:07:54 GMT 21.581478 -102.109474 40,000 319 391 -64
2019-04-21 13:07:44 GMT 21.567745 -102.096252 40,000 319 391 -64
2019-04-21 13:07:33 GMT 21.553127 -102.082214 39,975 319 391 -64
2019-04-21 13:07:23 GMT 21.539246 -102.068832 40,000 319 391 -64
2019-04-21 13:07:12 GMT 21.524544 -102.054649 40,000 319 391 -64
2019-04-21 13:07:01 GMT 21.510254 -102.040916 40,000 319 391 0
2019-04-21 13:06:51 GMT 21.496353 -102.027534 40,000 319 390 64
2019-04-21 13:06:40 GMT 21.481716 -102.013451 39,975 319 390 0
2019-04-21 13:06:30 GMT 21.467285 -101.999565 40,000 319 390 -64
2019-04-21 13:06:19 GMT 21.453827 -101.986633 40,000 319 390 -64
2019-04-21 13:06:09 GMT 21.439041 -101.972404 40,000 319 390 -64
2019-04-21 13:05:59 GMT 21.424484 -101.958420 40,000 319 390 -64
2019-04-21 13:05:47 GMT 21.410679 -101.945137 40,000 319 389 0
2019-04-21 13:05:37 GMT 21.396200 -101.931206 39,975 319 388 -64
2019-04-21 13:05:27 GMT 21.382370 -101.917915 39,975 319 388 0
2019-04-21 13:05:16 GMT 21.368036 -101.904144 40,000 319 388 -64
2019-04-21 13:05:06 GMT 21.353279 -101.889954 39,975 319 388 -64
2019-04-21 13:04:55 GMT 21.339359 -101.876526 40,000 318 389 64
2019-04-21 13:04:43 GMT 21.324556 -101.862282 40,000 318 390 -64
2019-04-21 13:04:34 GMT 21.311195 -101.848297 40,000 314 387 0
2019-04-21 13:04:23 GMT 21.298462 -101.833427 40,000 313 387 0
2019-04-21 13:04:11 GMT 21.285141 -101.817841 40,000 313 387 -64
2019-04-21 13:04:02 GMT 21.272697 -101.803284 40,000 313 387 0
2019-04-21 13:03:51 GMT 21.259735 -101.788132 40,000 313 387 -64
2019-04-21 13:03:40 GMT 21.246815 -101.772972 40,000 313 387 -64
2019-04-21 13:03:30 GMT 21.234013 -101.757965 40,000 313 387 -64
2019-04-21 13:03:18 GMT 21.220930 -101.742653 39,975 313 387 64
2019-04-21 13:03:08 GMT 21.208363 -101.727959 40,000 313 387 -64
2019-04-21 13:02:58 GMT 21.195190 -101.712524 39,975 313 387 0
2019-04-21 13:02:47 GMT 21.181967 -101.697136 40,000 313 387 -64
2019-04-21 13:02:36 GMT 21.169397 -101.682434 40,000 313 387 0
2019-04-21 13:02:25 GMT 21.155960 -101.666733 40,000 313 387 -64
2019-04-21 13:02:15 GMT 21.143282 -101.651863 40,000 313 387 0
2019-04-21 13:02:04 GMT 21.130783 -101.637268 39,975 313 387 0
2019-04-21 13:01:53 GMT 21.117462 -101.621689 39,975 313 388 -64
2019-04-21 13:01:43 GMT 21.104370 -101.606354 40,000 313 388 0
2019-04-21 13:01:34 GMT 21.094774 -101.595154 40,000 313 388 0
2019-04-21 13:01:31 GMT 21.091375 -101.591187 40,000 313 388 0
2019-04-21 13:01:21 GMT 21.078482 -101.576134 40,000 313 388 0
2019-04-21 13:01:11 GMT 21.065506 -101.560913 40,000 313 389 0
2019-04-21 13:01:02 GMT 21.055857 -101.549683 40,000 313 389 -64
2019-04-21 13:00:59 GMT 21.052597 -101.545883 40,000 313 389 -64
2019-04-21 13:00:52 GMT 21.043148 -101.534981 40,000 313 389 64
2019-04-21 13:00:49 GMT 21.039551 -101.530853 39,975 313 390 0
2019-04-21 13:00:39 GMT 21.026436 -101.515717 40,000 313 390 -64
2019-04-21 13:00:30 GMT 21.016891 -101.504845 39,975 314 391 64
2019-04-21 13:00:27 GMT 21.013027 -101.500488 39,975 314 391 0
2019-04-21 13:00:20 GMT 21.003571 -101.489540 40,000 312 389 0
2019-04-21 13:00:17 GMT 21.000000 -101.485176 40,000 311 389 -448
2019-04-21 13:00:07 GMT 20.987286 -101.469124 40,000 311 390 -64
2019-04-21 12:59:56 GMT 20.975182 -101.453796 39,975 311 391 0
2019-04-21 12:59:48 GMT 20.966400 -101.442749 39,975 311 391 -64
2019-04-21 12:59:45 GMT 20.962692 -101.437996 39,975 311 391 -64
2019-04-21 12:59:38 GMT 20.954605 -101.427826 40,000 311 391 -64
2019-04-21 12:59:35 GMT 20.950184 -101.422188 40,000 311 391 -64
2019-04-21 12:59:27 GMT 20.942223 -101.412148 40,000 311 391 -64
2019-04-21 12:59:24 GMT 20.937881 -101.406654 40,000 311 391 -64
2019-04-21 12:59:17 GMT 20.930073 -101.396767 40,000 311 391 64
2019-04-21 12:59:13 GMT 20.925476 -101.391006 40,000 311 392 0
2019-04-21 12:59:06 GMT 20.917643 -101.381088 40,000 311 392 -128
2019-04-21 12:59:03 GMT 20.912842 -101.375015 40,000 311 392 -64
2019-04-21 12:58:56 GMT 20.905334 -101.365555 40,000 311 392 64
2019-04-21 12:58:52 GMT 20.900162 -101.359032 40,000 311 392 0
2019-04-21 12:58:44 GMT 20.892151 -101.348923 40,000 311 393 0
2019-04-21 12:58:40 GMT 20.887711 -101.343285 40,000 311 393 0
2019-04-21 12:58:34 GMT 20.880386 -101.334114 40,000 311 393 -64
2019-04-21 12:58:31 GMT 20.875214 -101.327591 40,000 311 393 -64
2019-04-21 12:58:24 GMT 20.868118 -101.318665 40,000 311 394 -64
2019-04-21 12:58:20 GMT 20.862717 -101.311844 40,000 311 394 0
2019-04-21 12:58:12 GMT 20.854202 -101.301109 40,000 311 395 0
2019-04-21 12:58:09 GMT 20.850048 -101.295891 40,000 311 394 -64
2019-04-21 12:58:03 GMT 20.843079 -101.287125 39,975 311 395 0
2019-04-21 12:57:59 GMT 20.837526 -101.280113 39,975 311 395 0
2019-04-21 12:57:51 GMT 20.829006 -101.269379 39,975 311 395 -64
2019-04-21 12:57:48 GMT 20.824492 -101.263733 39,975 311 395 -64
2019-04-21 12:57:42 GMT 20.818113 -101.255692 40,000 311 395 0
2019-04-21 12:57:36 GMT 20.811922 -101.247902 40,000 311 396 0
2019-04-21 12:57:31 GMT 20.805405 -101.239700 40,000 311 396 -64
2019-04-21 12:57:27 GMT 20.799225 -101.231903 40,000 311 396 -64
2019-04-21 12:57:20 GMT 20.792698 -101.223686 40,000 311 398 0
2019-04-21 12:57:16 GMT 20.786505 -101.215889 40,000 311 398 0
2019-04-21 12:57:10 GMT 20.780313 -101.208099 40,000 311 397 -64
2019-04-21 12:57:05 GMT 20.774231 -101.200462 40,000 311 398 0
2019-04-21 12:56:59 GMT 20.767822 -101.192368 40,000 311 397 64
2019-04-21 12:56:55 GMT 20.761553 -101.184433 40,000 311 398 -64
2019-04-21 12:56:48 GMT 20.754150 -101.175140 39,975 311 398 0
2019-04-21 12:56:43 GMT 20.748657 -101.168251 40,000 311 398 -64
2019-04-21 12:56:38 GMT 20.742371 -101.160347 40,000 311 397 0
2019-04-21 12:56:33 GMT 20.736420 -101.152840 39,975 311 397 0
2019-04-21 12:56:27 GMT 20.729507 -101.144157 40,000 311 398 -64
2019-04-21 12:56:23 GMT 20.723557 -101.136658 40,000 311 397 0
2019-04-21 12:56:17 GMT 20.717049 -101.128448 39,975 311 398 -64
2019-04-21 12:56:12 GMT 20.710857 -101.120659 39,975 311 397 0
2019-04-21 12:56:06 GMT 20.704666 -101.112869 40,000 311 397 -64
2019-04-21 12:56:01 GMT 20.698151 -101.104630 40,000 311 397 -64
2019-04-21 12:55:56 GMT 20.692329 -101.097290 40,000 311 397 -64
2019-04-21 12:55:51 GMT 20.685287 -101.088493 40,000 311 397 64
2019-04-21 12:55:45 GMT 20.679794 -101.081627 40,000 311 397 0
2019-04-21 12:55:39 GMT 20.672033 -101.071869 40,000 311 397 -64
2019-04-21 12:55:34 GMT 20.666075 -101.064430 40,000 311 397 -64
2019-04-21 12:55:29 GMT 20.659744 -101.056511 40,000 311 397 0
2019-04-21 12:55:24 GMT 20.654480 -101.049889 40,000 311 397 0
2019-04-21 12:55:19 GMT 20.646942 -101.040512 40,000 311 398 -64
2019-04-21 12:55:13 GMT 20.641447 -101.033623 40,000 311 398 64
2019-04-21 12:55:08 GMT 20.634155 -101.024483 39,975 311 398 -64
2019-04-21 12:55:02 GMT 20.628433 -101.017273 40,000 311 398 -64
2019-04-21 12:54:57 GMT 20.621246 -101.008301 40,000 311 398 0
2019-04-21 12:54:52 GMT 20.616211 -101.002022 39,975 311 398 64
2019-04-21 12:54:45 GMT 20.608063 -100.991867 40,000 311 398 -128
2019-04-21 12:54:42 GMT 20.603647 -100.986328 40,000 311 398 -128
2019-04-21 12:54:36 GMT 20.595657 -100.976273 40,000 311 398 0
2019-04-21 12:54:30 GMT 20.590055 -100.969246 40,000 311 398 0
2019-04-21 12:54:24 GMT 20.582748 -100.960091 40,000 311 398 -64
2019-04-21 12:54:20 GMT 20.577988 -100.954102 40,000 311 398 -64
2019-04-21 12:54:14 GMT 20.570456 -100.944733 40,000 311 397 0
2019-04-21 12:54:09 GMT 20.564962 -100.937836 40,000 311 398 -64
2019-04-21 12:54:04 GMT 20.557329 -100.928253 40,000 311 397 -64
2019-04-21 12:53:58 GMT 20.552216 -100.921829 40,000 311 397 0
2019-04-21 12:53:52 GMT 20.544800 -100.912560 40,000 311 397 -64
2019-04-21 12:53:48 GMT 20.540039 -100.906631 40,000 311 397 -64
2019-04-21 12:53:42 GMT 20.532284 -100.896942 40,000 311 397 -64
2019-04-21 12:53:38 GMT 20.528002 -100.891548 40,000 311 396 -64
2019-04-21 12:53:32 GMT 20.519714 -100.881111 40,000 311 395 0
2019-04-21 12:53:28 GMT 20.515663 -100.876068 40,000 311 395 0
2019-04-21 12:53:20 GMT 20.506634 -100.864777 40,000 311 395 -64
2019-04-21 12:53:11 GMT 20.494576 -100.849648 40,000 311 393 0
2019-04-21 12:53:05 GMT 20.488432 -100.841957 40,000 311 393 64
2019-04-21 12:52:59 GMT 20.480301 -100.831787 40,000 311 392 -64
2019-04-21 12:52:54 GMT 20.475861 -100.826195 40,000 311 391 -64
2019-04-21 12:52:49 GMT 20.469624 -100.818436 40,000 311 390 -64
2019-04-21 12:52:44 GMT 20.464224 -100.811691 40,000 311 389 0
2019-04-21 12:52:38 GMT 20.456310 -100.801811 40,000 311 387 -64
2019-04-21 12:52:33 GMT 20.451609 -100.795967 40,000 311 385 0
2019-04-21 12:52:27 GMT 20.444672 -100.787277 40,000 311 385 0
2019-04-21 12:52:23 GMT 20.440063 -100.781532 40,000 311 384 64
2019-04-21 12:52:16 GMT 20.431183 -100.770477 40,000 311 382 0
2019-04-21 12:52:13 GMT 20.427868 -100.766304 40,000 311 380 0
2019-04-21 12:52:05 GMT 20.418869 -100.755074 40,000 311 378 0
2019-04-21 12:51:56 GMT 20.407618 -100.741081 40,000 311 375 -64
2019-04-21 12:51:45 GMT 20.395979 -100.726501 40,000 311 371 64
2019-04-21 12:51:29 GMT 20.378010 -100.704079 40,000 311 368 -128
2019-04-21 12:51:21 GMT 20.369110 -100.693031 40,000 311 362 0
2019-04-21 12:51:15 GMT 20.362839 -100.685188 40,000 311 358 0
2019-04-21 12:51:10 GMT 20.357437 -100.678467 40,000 311 357 0
2019-04-21 12:50:48 GMT 20.333817 -100.649040 39,975 311 348 128
2019-04-21 12:50:40 GMT 20.326569 -100.640106 39,975 311 346 -64
2019-04-21 12:50:01 GMT 20.285706 -100.589149 39,475 311 339 960
2019-04-21 12:49:55 GMT 20.279877 -100.581879 39,375 311 339 960
2019-04-21 12:49:48 GMT 20.272150 -100.572243 39,250 311 339 960
2019-04-21 12:49:44 GMT 20.269180 -100.568550 39,200 311 339 960
2019-04-21 12:49:37 GMT 20.260324 -100.557510 39,075 311 339 960
2019-04-21 12:49:09 GMT 20.232742 -100.523285 38,600 311 337 1024
2019-04-21 12:49:04 GMT 20.227598 -100.516861 38,525 311 337 1088
2019-04-21 12:48:49 GMT 20.213215 -100.498985 38,250 311 336 1216
2019-04-21 12:48:40 GMT 20.203995 -100.487480 38,050 311 337 1216
2019-04-21 12:48:33 GMT 20.195297 -100.476639 37,900 311 337 1024
2019-04-21 12:48:11 GMT 20.173878 -100.449997 37,550 311 332 1408
2019-04-21 12:48:01 GMT 20.163683 -100.437263 37,300 311 333 1536
2019-04-21 12:47:49 GMT 20.152725 -100.423622 37,050 311 334 1344
2019-04-21 12:46:45 GMT 20.087198 -100.342476 35,400 311 337 1536
We lost coverage of the aircraft here for a total of 5 minutes
2019-04-21 12:41:42 GMT 19.772919 -99.954056 27,300 311 343 1024
2019-04-21 12:38:36 GMT 19.564556 -99.757858 22,675 335 316 1408
2019-04-21 12:38:25 GMT 19.549706 -99.750519 22,375 335 312 1856
2019-04-21 12:38:15 GMT 19.537136 -99.744324 22,100 336 310 1792
2019-04-21 12:38:04 GMT 19.522430 -99.737122 21,775 336 306 2048
2019-04-21 12:37:52 GMT 19.507343 -99.729744 21,375 336 305 1984
2019-04-21 12:37:44 GMT 19.496357 -99.724297 21,200 335 301 1280
2019-04-21 12:37:33 GMT 19.482697 -99.717552 20,950 335 294 1472
2019-04-21 12:37:22 GMT 19.470100 -99.711311 20,675 335 288 1920
2019-04-21 12:37:11 GMT 19.455902 -99.704376 20,300 335 283 2048
2019-04-21 12:37:02 GMT 19.445475 -99.699226 20,050 335 279 1920
2019-04-21 12:36:51 GMT 19.432905 -99.692986 19,725 336 274 1792
2019-04-21 12:36:38 GMT 19.418568 -99.685898 19,400 335 266 1664
2019-04-21 12:35:58 GMT 19.374435 -99.664169 17,900 336 253 2752
2019-04-21 12:35:47 GMT 19.362762 -99.658554 17,375 336 254 2880
2019-04-21 12:35:38 GMT 19.353163 -99.653885 17,025 335 254 2624
2019-04-21 12:35:27 GMT 19.342129 -99.648293 16,625 335 253 2304
2019-04-21 12:35:15 GMT 19.329514 -99.641953 16,200 335 247 2304
2019-04-21 12:35:06 GMT 19.319687 -99.637024 15,825 335 244 2688
2019-04-21 12:34:55 GMT 19.308332 -99.631416 15,275 336 243 3264

Making use of Plane Finder data

You are free to use the raw flight data, aircraft information and images provided in this report for your own purposes provided the data is correctly attributed to Plane Finder. We ask that you please credit Plane Finder and link to planefinder.net in close proximity to the content.

Optionally one of the following logos (no smaller then 150x24px) can be used and must link to planefinder.net

Embedding the Plane Finder map

You are welcome to embed the Plane Finder playback map on your website to offer visitors a more interactive experience. We suggest using the following HTML code:

<iframe src="//planefinder.net/data/report/XAHOF-XA-HOF-7700-squawk-2019-04-21/map" width="800" height="600" seamless="seamless"></iframe>

Where our data comes from

Plane Finder has a global network of data feeds and antenna radars that receive data broadcast directly from aircraft. The primary technologies used are ADS-B and MLAT. We also show feeds from the FAA and a FLARM glider feed.

Click here to find out more about the Plane Finder network.

How we collect our data